createdAt,value
2023-05-08T00:01:20.282Z,100.00
2023-05-08T00:03:46.971Z,100.00
2023-05-08T00:06:13.550Z,100.00
2023-05-08T00:08:40.383Z,100.00
2023-05-08T00:11:06.879Z,100.00
2023-05-08T00:13:33.433Z,100.00
2023-05-08T00:15:59.977Z,100.00
2023-05-08T00:18:26.621Z,100.00
2023-05-08T00:20:53.257Z,100.00
2023-05-08T00:23:22.015Z,100.00
2023-05-08T00:25:48.492Z,100.00
2023-05-08T00:28:14.979Z,100.00
2023-05-08T00:30:42.504Z,99.32
2023-05-08T00:33:09.487Z,97.37
2023-05-08T00:35:36.041Z,97.83
2023-05-08T00:38:03.213Z,96.54
2023-05-08T00:40:29.960Z,97.72
2023-05-08T00:42:56.389Z,96.17
2023-05-08T00:45:22.939Z,99.52
2023-05-08T00:47:49.905Z,99.32
2023-05-08T00:50:16.951Z,98.83
2023-05-08T00:52:43.489Z,97.36
2023-05-08T00:55:09.979Z,98.96
2023-05-08T00:57:36.826Z,99.49
2023-05-08T01:00:10.290Z,98.57
2023-05-08T01:02:37.174Z,97.54
2023-05-08T01:05:03.880Z,99.52
2023-05-08T01:07:30.384Z,100.00
2023-05-08T01:09:56.912Z,100.00
2023-05-08T01:12:43.770Z,100.00
2023-05-08T01:15:19.524Z,100.00
2023-05-08T01:17:46.050Z,100.00
2023-05-08T01:20:18.075Z,100.00
2023-05-08T01:23:00.827Z,100.00
2023-05-08T01:25:36.468Z,100.00
2023-05-08T01:28:09.144Z,100.00
2023-05-08T01:30:39.075Z,100.00
2023-05-08T01:33:14.132Z,100.00
2023-05-08T01:35:47.624Z,100.00
2023-05-08T01:38:14.056Z,100.00
2023-05-08T01:40:46.962Z,100.00
2023-05-08T01:43:22.679Z,100.00
2023-05-08T01:45:51.393Z,100.00
2023-05-08T01:48:20.481Z,100.00
2023-05-08T01:50:48.466Z,100.00
2023-05-08T01:53:34.405Z,100.00
2023-05-08T01:56:03.684Z,100.00
2023-05-08T01:58:30.659Z,100.00
2023-05-08T02:00:58.947Z,100.00
2023-05-08T02:03:25.931Z,100.00
2023-05-08T02:05:54.304Z,100.00
2023-05-08T02:08:21.295Z,100.00
2023-05-08T02:10:49.805Z,100.00
2023-05-08T02:13:19.278Z,100.00
2023-05-08T02:15:48.167Z,100.00
2023-05-08T02:18:15.752Z,100.00
2023-05-08T02:20:42.237Z,100.00
2023-05-08T02:23:09.309Z,100.00
2023-05-08T02:25:36.436Z,100.00
2023-05-08T02:28:03.432Z,100.00
2023-05-08T02:30:30.638Z,100.00
2023-05-08T02:33:00.639Z,100.00
2023-05-08T02:35:28.401Z,100.00
2023-05-08T02:37:55.613Z,100.00
2023-05-08T02:40:22.686Z,100.00
2023-05-08T02:42:49.696Z,100.00
2023-05-08T02:45:16.693Z,100.00
2023-05-08T02:47:52.892Z,100.00
2023-05-08T02:50:48.950Z,100.00
2023-05-08T02:53:18.470Z,98.61
2023-05-08T02:55:53.791Z,98.49
2023-05-08T02:58:32.354Z,96.51
2023-05-08T03:01:31.512Z,94.61
2023-05-08T03:04:21.191Z,95.56
2023-05-08T03:06:48.067Z,96.78
2023-05-08T03:09:26.778Z,95.95
2023-05-08T03:11:57.979Z,95.41
2023-05-08T03:14:28.406Z,95.75
2023-05-08T03:16:55.861Z,94.18
2023-05-08T03:19:26.755Z,96.20
2023-05-08T03:21:54.860Z,95.17
2023-05-08T03:24:22.720Z,96.03
2023-05-08T03:26:49.290Z,96.03
2023-05-08T03:29:16.945Z,94.68
2023-05-08T03:31:44.599Z,93.06
2023-05-08T03:34:12.593Z,95.01
2023-05-08T03:36:39.442Z,96.60
2023-05-08T03:39:06.125Z,95.76
2023-05-08T03:41:32.652Z,95.80
2023-05-08T03:43:59.524Z,96.25
2023-05-08T03:46:26.244Z,96.99
2023-05-08T03:48:53.205Z,96.75
2023-05-08T03:51:21.771Z,95.59
2023-05-08T03:53:49.327Z,95.78
2023-05-08T03:56:16.073Z,95.80
2023-05-08T03:58:42.618Z,94.71
2023-05-08T04:01:18.608Z,95.09
2023-05-08T04:03:57.600Z,95.17
2023-05-08T04:06:30.753Z,96.40
2023-05-08T04:09:04.113Z,95.62
2023-05-08T04:11:31.666Z,96.69
2023-05-08T04:14:01.902Z,97.61
2023-05-08T04:16:30.901Z,95.55
2023-05-08T04:19:02.229Z,93.96
2023-05-08T04:21:31.445Z,95.06
2023-05-08T04:23:58.847Z,95.02
2023-05-08T04:26:28.244Z,92.46
2023-05-08T04:28:57.080Z,95.01
2023-05-08T04:31:24.529Z,91.24
2023-05-08T04:33:51.594Z,89.86
2023-05-08T04:36:18.091Z,91.30
2023-05-08T04:38:45.372Z,90.18
2023-05-08T04:41:13.043Z,91.83
2023-05-08T04:43:40.293Z,92.31
2023-05-08T04:46:07.803Z,90.94
2023-05-08T04:48:34.344Z,91.28
2023-05-08T04:51:01.191Z,90.76
2023-05-08T04:53:28.091Z,88.68
2023-05-08T04:55:54.619Z,89.10
2023-05-08T04:58:21.287Z,89.64
2023-05-08T05:00:48.867Z,89.87
2023-05-08T05:03:15.546Z,91.63
2023-05-08T05:05:42.805Z,90.91
2023-05-08T05:08:09.485Z,90.78
2023-05-08T05:10:37.823Z,91.69
2023-05-08T05:13:04.713Z,91.26
2023-05-08T05:15:32.106Z,91.25
2023-05-08T05:17:59.034Z,92.24
2023-05-08T05:20:25.940Z,91.81
2023-05-08T05:22:53.099Z,91.52
2023-05-08T05:25:19.652Z,91.10
2023-05-08T05:27:46.191Z,90.31
2023-05-08T05:30:13.149Z,90.66
2023-05-08T05:32:39.879Z,90.15
2023-05-08T05:35:07.303Z,90.22
2023-05-08T05:37:33.820Z,91.54
2023-05-08T05:40:00.591Z,91.04
2023-05-08T05:42:27.155Z,89.92
2023-05-08T05:44:56.708Z,90.24
2023-05-08T05:47:23.638Z,90.13
2023-05-08T05:49:50.394Z,90.60
2023-05-08T05:52:16.924Z,90.31
2023-05-08T05:54:43.488Z,91.24
2023-05-08T05:57:10.069Z,88.25
2023-05-08T05:59:36.761Z,91.02
2023-05-08T06:02:03.641Z,89.61
2023-05-08T06:04:30.508Z,88.92
2023-05-08T06:06:57.106Z,87.66
2023-05-08T06:09:23.692Z,88.45
2023-05-08T06:11:51.499Z,90.04
2023-05-08T06:14:18.192Z,91.26
2023-05-08T06:16:45.111Z,90.87
2023-05-08T06:19:12.007Z,93.77
2023-05-08T06:21:39.845Z,92.57
2023-05-08T06:24:07.790Z,90.24
2023-05-08T06:26:34.242Z,88.45
2023-05-08T06:29:01.376Z,88.82
2023-05-08T06:31:28.266Z,88.82
2023-05-08T06:33:54.988Z,89.63
2023-05-08T06:36:21.464Z,87.62
2023-05-08T06:38:47.936Z,88.07
2023-05-08T06:41:15.469Z,88.28
2023-05-08T06:43:42.120Z,87.08
2023-05-08T06:46:08.693Z,86.58
2023-05-08T06:48:35.201Z,86.74
2023-05-08T06:51:02.700Z,88.06
2023-05-08T06:53:29.175Z,86.74
2023-05-08T06:55:57.802Z,86.15
2023-05-08T06:58:24.462Z,86.21
2023-05-08T07:00:51.003Z,89.20
2023-05-08T07:03:17.448Z,88.43
2023-05-08T07:05:43.864Z,89.43
2023-05-08T07:08:10.447Z,87.69
2023-05-08T07:10:36.877Z,87.59
2023-05-08T07:13:03.386Z,88.68
2023-05-08T07:15:31.931Z,87.69
2023-05-08T07:17:58.679Z,87.35
2023-05-08T07:20:25.265Z,86.22
2023-05-08T07:22:51.787Z,87.33
2023-05-08T07:25:18.332Z,86.26
2023-05-08T07:27:44.837Z,86.15
2023-05-08T07:30:11.482Z,87.95
2023-05-08T07:32:39.224Z,86.82
2023-05-08T07:35:10.302Z,86.42
2023-05-08T07:37:37.617Z,82.67
2023-05-08T07:40:04.238Z,83.69
2023-05-08T07:42:30.698Z,83.01
2023-05-08T07:44:57.298Z,86.56
2023-05-08T07:47:23.918Z,84.48
2023-05-08T07:49:50.563Z,86.22
2023-05-08T07:52:17.065Z,89.13
2023-05-08T07:54:43.851Z,86.44
2023-05-08T07:57:11.180Z,85.14
2023-05-08T07:59:37.813Z,85.04
2023-05-08T08:02:04.335Z,86.01
2023-05-08T08:04:30.898Z,85.85
2023-05-08T08:06:59.349Z,85.73
2023-05-08T08:09:25.861Z,87.72
2023-05-08T08:11:52.349Z,88.08
2023-05-08T08:14:19.016Z,86.20
2023-05-08T08:16:45.537Z,87.75
2023-05-08T08:19:12.130Z,84.37
2023-05-08T08:21:42.431Z,82.99
2023-05-08T08:24:08.945Z,85.45
2023-05-08T08:26:35.450Z,86.35
2023-05-08T08:29:02.174Z,84.17
2023-05-08T08:31:28.673Z,84.65
2023-05-08T08:33:55.195Z,83.86
2023-05-08T08:36:21.661Z,85.34
2023-05-08T08:38:48.210Z,86.13
2023-05-08T08:41:15.676Z,84.19
2023-05-08T08:43:45.209Z,85.12
2023-05-08T08:46:14.717Z,86.28
2023-05-08T08:48:45.202Z,87.04
2023-05-08T08:51:18.921Z,87.35
2023-05-08T08:53:49.211Z,88.01
2023-05-08T08:56:16.468Z,88.50
2023-05-08T08:58:50.983Z,90.01
2023-05-08T09:01:18.297Z,85.81
2023-05-08T09:03:46.787Z,88.86
2023-05-08T09:06:15.040Z,87.97
2023-05-08T09:08:42.008Z,87.76
2023-05-08T09:11:08.496Z,86.83
2023-05-08T09:13:35.178Z,88.33
2023-05-08T09:16:01.845Z,88.21
2023-05-08T09:18:28.316Z,85.92
2023-05-08T09:20:55.043Z,86.16
2023-05-08T09:23:21.580Z,87.70
2023-05-08T09:25:48.696Z,86.85
2023-05-08T09:28:18.243Z,89.25
2023-05-08T09:30:57.958Z,89.30
2023-05-08T09:33:25.512Z,90.68
2023-05-08T09:35:52.180Z,90.08
2023-05-08T09:38:37.064Z,87.61
2023-05-08T09:41:15.265Z,89.58
2023-05-08T09:43:45.409Z,91.15
2023-05-08T09:46:22.420Z,91.60
2023-05-08T09:48:49.412Z,87.56
2023-05-08T09:51:16.172Z,87.08
2023-05-08T09:53:42.644Z,86.52
2023-05-08T09:56:09.718Z,86.77
2023-05-08T09:58:40.564Z,84.65
2023-05-08T10:01:27.341Z,84.24
2023-05-08T10:03:53.904Z,87.53
2023-05-08T10:06:20.384Z,88.07
2023-05-08T10:08:48.275Z,88.13
2023-05-08T10:11:18.217Z,87.86
2023-05-08T10:13:45.198Z,86.44
2023-05-08T10:16:14.416Z,87.75
2023-05-08T10:18:42.372Z,88.64
2023-05-08T10:21:09.056Z,83.58
2023-05-08T10:23:37.769Z,87.22
2023-05-08T10:26:08.880Z,88.53
2023-05-08T10:28:49.988Z,85.31
2023-05-08T10:31:17.892Z,88.47
2023-05-08T10:33:45.585Z,89.95
2023-05-08T10:36:13.377Z,91.71
2023-05-08T10:38:41.439Z,91.44
2023-05-08T10:41:08.209Z,92.08
2023-05-08T10:43:36.080Z,91.70
2023-05-08T10:46:07.621Z,92.40
2023-05-08T10:48:39.458Z,91.77
2023-05-08T10:51:10.123Z,92.20
2023-05-08T10:53:46.157Z,91.47
2023-05-08T10:56:12.693Z,91.58
2023-05-08T10:58:40.203Z,90.76
2023-05-08T11:01:09.609Z,90.62
2023-05-08T11:03:41.607Z,90.46
2023-05-08T11:06:08.327Z,88.15
2023-05-08T11:08:43.059Z,89.19
2023-05-08T11:11:29.474Z,89.57
2023-05-08T11:13:59.636Z,90.40
2023-05-08T11:16:44.928Z,89.08
2023-05-08T11:19:22.060Z,89.63
2023-05-08T11:22:07.672Z,89.48
2023-05-08T11:24:37.956Z,89.14
2023-05-08T11:27:04.675Z,88.58
2023-05-08T11:29:31.200Z,88.71
2023-05-08T11:31:58.073Z,87.50
2023-05-08T11:34:49.170Z,88.15
2023-05-08T11:37:23.923Z,89.41
2023-05-08T11:39:50.791Z,88.06
2023-05-08T11:42:29.430Z,86.66
2023-05-08T11:45:02.007Z,88.52
2023-05-08T11:47:32.283Z,88.77
2023-05-08T11:49:59.340Z,89.37
2023-05-08T11:52:26.382Z,89.75
2023-05-08T11:54:53.038Z,89.77
2023-05-08T11:57:19.814Z,88.10
2023-05-08T11:59:49.731Z,86.44
2023-05-08T12:02:16.337Z,85.22
2023-05-08T12:04:46.686Z,83.38
2023-05-08T12:07:13.650Z,85.50
2023-05-08T12:09:40.174Z,85.46
2023-05-08T12:12:07.216Z,84.15
2023-05-08T12:14:34.574Z,82.71
2023-05-08T12:17:02.298Z,80.72
2023-05-08T12:19:28.810Z,80.52
2023-05-08T12:21:56.979Z,82.03
2023-05-08T12:24:26.069Z,82.56
2023-05-08T12:26:58.547Z,81.69
2023-05-08T12:29:27.394Z,81.87
2023-05-08T12:31:54.193Z,82.27
2023-05-08T12:34:21.054Z,83.39
2023-05-08T12:36:47.807Z,81.13
2023-05-08T12:39:18.205Z,79.21
2023-05-08T12:41:51.898Z,79.29
2023-05-08T12:44:19.116Z,75.16
2023-05-08T12:46:56.303Z,73.59
2023-05-08T12:49:26.689Z,74.08
2023-05-08T12:52:00.229Z,74.70
2023-05-08T12:54:33.727Z,73.96
2023-05-08T12:57:00.630Z,66.85
2023-05-08T12:59:33.644Z,67.27
2023-05-08T13:02:00.305Z,63.60
2023-05-08T13:04:27.036Z,66.29
2023-05-08T13:06:54.724Z,65.93
2023-05-08T13:09:21.804Z,65.65
2023-05-08T13:11:48.251Z,67.83
2023-05-08T13:14:14.912Z,69.29
2023-05-08T13:16:42.094Z,67.58
2023-05-08T13:19:08.522Z,64.97
2023-05-08T13:21:34.981Z,67.53
2023-05-08T13:24:01.450Z,65.04
2023-05-08T13:26:27.905Z,65.72
2023-05-08T13:28:56.492Z,64.71
2023-05-08T13:31:23.348Z,62.66
2023-05-08T13:33:49.861Z,62.71
2023-05-08T13:36:16.344Z,64.33
2023-05-08T13:38:42.775Z,67.84
2023-05-08T13:41:09.268Z,68.76
2023-05-08T13:43:36.891Z,68.57
2023-05-08T13:46:04.826Z,68.23
2023-05-08T13:48:33.241Z,68.10
2023-05-08T13:50:59.753Z,70.98
2023-05-08T13:53:26.183Z,70.97
2023-05-08T13:55:52.728Z,71.63
2023-05-08T13:58:19.229Z,72.22
2023-05-08T14:00:45.723Z,72.56
2023-05-08T14:03:12.270Z,74.18
2023-05-08T14:05:38.843Z,73.61
2023-05-08T14:08:05.419Z,75.98
2023-05-08T14:10:31.894Z,77.34
2023-05-08T14:12:58.435Z,75.35
2023-05-08T14:15:29.178Z,78.56
2023-05-08T14:18:02.881Z,77.11
2023-05-08T14:20:29.363Z,78.74
2023-05-08T14:22:59.604Z,78.93
2023-05-08T14:25:26.671Z,75.60
2023-05-08T14:27:53.156Z,78.20
2023-05-08T14:30:19.640Z,79.34
2023-05-08T14:32:46.431Z,78.02
2023-05-08T14:35:14.119Z,77.47
2023-05-08T14:37:41.055Z,78.99
2023-05-08T14:40:07.830Z,78.49
2023-05-08T14:42:34.550Z,79.33
2023-05-08T14:45:01.185Z,80.46
2023-05-08T14:47:27.820Z,80.45
2023-05-08T14:49:54.332Z,81.23
2023-05-08T14:52:20.916Z,82.60
2023-05-08T14:54:53.068Z,81.27
2023-05-08T14:57:20.584Z,79.62
2023-05-08T14:59:54.884Z,81.33
2023-05-08T15:02:22.264Z,81.69
2023-05-08T15:04:49.052Z,83.54
2023-05-08T15:07:15.476Z,83.79
2023-05-08T15:09:42.032Z,83.75
2023-05-08T15:12:08.594Z,82.85
2023-05-08T15:14:35.363Z,83.40
2023-05-08T15:17:01.890Z,82.58
2023-05-08T15:19:28.336Z,82.69
2023-05-08T15:21:54.762Z,83.62
2023-05-08T15:24:21.210Z,82.38
2023-05-08T15:26:47.695Z,82.80
2023-05-08T15:29:14.225Z,82.48
2023-05-08T15:31:40.771Z,83.41
2023-05-08T15:34:07.292Z,82.84
2023-05-08T15:36:35.198Z,83.25
2023-05-08T15:39:01.716Z,84.91
2023-05-08T15:41:28.176Z,84.78
2023-05-08T15:43:54.659Z,83.24
2023-05-08T15:46:21.219Z,83.31
2023-05-08T15:48:48.187Z,83.47
2023-05-08T15:51:14.877Z,83.30
2023-05-08T15:53:41.434Z,83.67
2023-05-08T15:56:07.966Z,82.73
2023-05-08T15:58:36.625Z,81.29
2023-05-08T16:01:04.784Z,82.47
2023-05-08T16:03:31.621Z,82.64
2023-05-08T16:05:58.223Z,84.71
2023-05-08T16:08:24.685Z,84.47
2023-05-08T16:10:54.095Z,82.66
2023-05-08T16:13:20.713Z,83.18
2023-05-08T16:15:47.364Z,84.18
2023-05-08T16:18:14.031Z,83.55
2023-05-08T16:20:41.667Z,84.50
2023-05-08T16:23:08.200Z,85.30
2023-05-08T16:25:34.812Z,83.45
2023-05-08T16:28:01.315Z,84.73
2023-05-08T16:30:27.818Z,82.92
2023-05-08T16:32:54.345Z,83.74
2023-05-08T16:35:20.881Z,82.23
2023-05-08T16:37:47.472Z,82.53
2023-05-08T16:40:14.024Z,81.36
2023-05-08T16:42:40.546Z,81.24
2023-05-08T16:45:08.148Z,81.89
2023-05-08T16:47:35.046Z,81.78
2023-05-08T16:50:01.555Z,81.48
2023-05-08T16:52:28.027Z,82.67
2023-05-08T16:54:54.799Z,84.81
2023-05-08T16:57:21.346Z,83.04
2023-05-08T16:59:47.909Z,82.38
2023-05-08T17:02:18.742Z,83.80
2023-05-08T17:04:46.922Z,82.77
2023-05-08T17:07:17.287Z,83.97
2023-05-08T17:09:44.326Z,84.26
2023-05-08T17:12:10.914Z,84.49
2023-05-08T17:14:39.423Z,84.73
2023-05-08T17:17:06.397Z,85.65
2023-05-08T17:19:32.963Z,85.41
2023-05-08T17:21:59.924Z,83.71
2023-05-08T17:24:26.774Z,84.71
2023-05-08T17:26:53.283Z,85.10
2023-05-08T17:29:19.835Z,84.09
2023-05-08T17:31:46.363Z,84.37
2023-05-08T17:34:13.031Z,85.78
2023-05-08T17:36:39.556Z,86.15
2023-05-08T17:39:06.104Z,85.61
2023-05-08T17:41:32.582Z,87.00
2023-05-08T17:43:59.078Z,86.79
2023-05-08T17:46:25.557Z,87.65
2023-05-08T17:48:52.071Z,88.21
2023-05-08T17:51:18.653Z,88.16
2023-05-08T17:53:45.127Z,88.12
2023-05-08T17:56:11.738Z,87.40
2023-05-08T17:58:38.182Z,87.38
2023-05-08T18:01:06.159Z,88.22
2023-05-08T18:03:32.711Z,89.75
2023-05-08T18:05:59.161Z,91.00
2023-05-08T18:08:25.631Z,92.53
2023-05-08T18:10:52.066Z,92.08
2023-05-08T18:13:18.717Z,91.40
2023-05-08T18:15:45.250Z,91.76
2023-05-08T18:18:11.777Z,91.22
2023-05-08T18:20:38.422Z,92.30
2023-05-08T18:23:04.891Z,93.23
2023-05-08T18:25:31.428Z,93.81
2023-05-08T18:27:58.875Z,94.61
2023-05-08T18:30:25.416Z,94.85
2023-05-08T18:32:53.267Z,94.41
2023-05-08T18:35:21.508Z,94.93
2023-05-08T18:37:48.065Z,95.17
2023-05-08T18:40:14.817Z,95.71
2023-05-08T18:42:41.566Z,94.99
2023-05-08T18:45:08.401Z,95.35
2023-05-08T18:47:34.911Z,96.17
2023-05-08T18:50:01.406Z,96.05
2023-05-08T18:52:27.909Z,96.74
2023-05-08T18:54:54.379Z,97.70
2023-05-08T18:57:20.939Z,98.07
2023-05-08T18:59:47.412Z,97.39
2023-05-08T19:02:14.448Z,96.62
2023-05-08T19:04:40.917Z,96.49
2023-05-08T19:07:07.335Z,96.07
2023-05-08T19:09:34.042Z,96.42
2023-05-08T19:12:00.688Z,96.19
2023-05-08T19:14:27.285Z,95.30
2023-05-08T19:16:55.022Z,94.77
2023-05-08T19:19:23.493Z,94.46
2023-05-08T19:21:50.077Z,94.38
2023-05-08T19:24:20.386Z,95.68
2023-05-08T19:26:47.171Z,96.75
2023-05-08T19:29:13.615Z,96.07
2023-05-08T19:31:40.116Z,96.13
2023-05-08T19:34:06.761Z,96.19
2023-05-08T19:36:34.837Z,98.15
2023-05-08T19:39:02.578Z,98.99
2023-05-08T19:41:29.148Z,99.83
2023-05-08T19:43:55.792Z,98.81
2023-05-08T19:46:22.325Z,97.32
2023-05-08T19:48:49.049Z,98.23
2023-05-08T19:51:16.326Z,98.61
2023-05-08T19:53:42.917Z,98.59
2023-05-08T19:56:09.458Z,98.19
2023-05-08T19:58:35.919Z,97.60
2023-05-08T20:01:02.367Z,98.17
2023-05-08T20:03:29.029Z,97.77
2023-05-08T20:05:55.586Z,97.10
2023-05-08T20:08:22.066Z,97.37
2023-05-08T20:10:49.226Z,98.64
2023-05-08T20:13:16.687Z,99.46
2023-05-08T20:15:43.506Z,99.85
2023-05-08T20:18:10.051Z,99.36
2023-05-08T20:20:36.524Z,100.00
2023-05-08T20:23:03.148Z,99.78
2023-05-08T20:25:29.673Z,99.17
2023-05-08T20:27:56.200Z,99.07
2023-05-08T20:30:23.775Z,98.98
2023-05-08T20:32:50.586Z,98.82
2023-05-08T20:35:17.136Z,98.82
2023-05-08T20:37:44.333Z,99.98
2023-05-08T20:40:10.996Z,100.00
2023-05-08T20:42:37.959Z,100.00
2023-05-08T20:45:04.666Z,100.00
2023-05-08T20:47:31.231Z,100.00
2023-05-08T20:49:57.719Z,100.00
2023-05-08T20:52:24.137Z,100.00
2023-05-08T20:54:50.750Z,100.00
2023-05-08T20:57:18.472Z,100.00
2023-05-08T20:59:47.218Z,100.00
2023-05-08T21:02:13.861Z,100.00
2023-05-08T21:04:40.516Z,100.00
2023-05-08T21:07:07.218Z,100.00
2023-05-08T21:09:33.845Z,100.00
2023-05-08T21:12:00.629Z,100.00
2023-05-08T21:14:27.092Z,100.00
2023-05-08T21:16:56.861Z,100.00
2023-05-08T21:19:23.775Z,100.00
2023-05-08T21:21:50.299Z,100.00
2023-05-08T21:24:17.001Z,100.00
2023-05-08T21:26:43.501Z,100.00
2023-05-08T21:29:10.895Z,100.00
2023-05-08T21:31:37.662Z,100.00
2023-05-08T21:34:04.383Z,100.00
2023-05-08T21:36:32.168Z,100.00
2023-05-08T21:38:58.714Z,100.00
2023-05-08T21:41:25.182Z,99.41
2023-05-08T21:43:51.645Z,99.06
2023-05-08T21:46:18.177Z,98.87
2023-05-08T21:48:44.715Z,99.20
2023-05-08T21:51:11.399Z,99.34
2023-05-08T21:53:37.892Z,100.00
2023-05-08T21:56:04.487Z,99.73
2023-05-08T21:58:30.986Z,99.18
2023-05-08T22:00:58.714Z,99.82
2023-05-08T22:03:25.627Z,99.31
2023-05-08T22:05:52.608Z,98.54
2023-05-08T22:08:19.510Z,98.20
2023-05-08T22:10:46.472Z,97.94
2023-05-08T22:13:13.135Z,99.22
2023-05-08T22:15:39.623Z,99.16
2023-05-08T22:18:06.110Z,99.88
2023-05-08T22:20:33.164Z,98.82
2023-05-08T22:22:59.716Z,97.44
2023-05-08T22:25:26.761Z,98.03
2023-05-08T22:27:53.379Z,97.70
2023-05-08T22:30:19.910Z,97.81
2023-05-08T22:32:52.110Z,97.08
2023-05-08T22:35:19.490Z,96.85
2023-05-08T22:37:46.098Z,96.55
2023-05-08T22:40:12.803Z,97.36
2023-05-08T22:42:39.394Z,96.96
2023-05-08T22:45:06.161Z,97.32
2023-05-08T22:47:33.467Z,96.65
2023-05-08T22:49:59.970Z,96.32
2023-05-08T22:52:27.126Z,96.30
2023-05-08T22:54:53.724Z,97.41
2023-05-08T22:57:21.227Z,96.79
2023-05-08T22:59:47.757Z,96.25
2023-05-08T23:02:14.205Z,96.55
2023-05-08T23:04:40.683Z,95.87
2023-05-08T23:07:07.232Z,96.24
2023-05-08T23:09:33.655Z,97.41
2023-05-08T23:12:00.119Z,97.24
2023-05-08T23:14:26.591Z,96.95
2023-05-08T23:16:53.083Z,97.50
2023-05-08T23:19:19.546Z,97.90
2023-05-08T23:21:46.090Z,98.09
2023-05-08T23:24:12.602Z,97.57
2023-05-08T23:26:41.361Z,98.28
2023-05-08T23:29:08.652Z,97.99
2023-05-08T23:31:35.167Z,97.33
2023-05-08T23:34:01.591Z,98.37
2023-05-08T23:36:28.154Z,98.52
2023-05-08T23:38:54.594Z,98.55
2023-05-08T23:41:21.121Z,98.72
2023-05-08T23:43:47.595Z,98.86
2023-05-08T23:46:14.278Z,99.25
2023-05-08T23:48:40.766Z,99.09
2023-05-08T23:51:07.220Z,99.89
2023-05-08T23:53:33.745Z,99.95
2023-05-08T23:56:00.328Z,99.12
2023-05-08T23:58:26.764Z,98.89
